createdAt,value
2023-05-10T14:45:34.807Z,10.30
2023-05-10T14:46:08.247Z,4.30
2023-05-10T14:46:41.796Z,6.10
2023-05-10T14:47:15.730Z,4.20
2023-05-10T14:47:49.084Z,4.10
2023-05-10T14:48:22.490Z,5.30
2023-05-10T14:48:56.998Z,6.10
2023-05-10T14:49:30.486Z,5.50
2023-05-10T14:50:03.776Z,4.90
2023-05-10T14:50:37.674Z,3.00
2023-05-10T14:51:11.147Z,7.60
2023-05-10T14:51:44.340Z,7.30
2023-05-10T14:52:18.742Z,2.50
2023-05-10T14:52:52.026Z,8.20
2023-05-10T14:53:25.295Z,5.90
2023-05-10T14:53:58.782Z,4.50
2023-05-10T14:54:32.170Z,6.40
2023-05-10T14:55:06.170Z,10.30
2023-05-10T14:55:40.385Z,8.80
2023-05-10T14:56:13.843Z,7.20
2023-05-10T14:56:47.442Z,8.60
2023-05-10T14:57:20.938Z,6.50
2023-05-10T14:57:54.504Z,6.80
2023-05-10T14:58:28.322Z,3.80
2023-05-10T14:59:01.583Z,10.50
2023-05-10T14:59:35.112Z,15.00
2023-05-10T15:00:09.340Z,14.70
2023-05-10T15:00:42.730Z,13.90
2023-05-10T15:01:16.454Z,13.30
2023-05-10T15:01:50.026Z,12.30
2023-05-10T15:02:24.179Z,15.40
2023-05-10T15:02:58.617Z,8.50
2023-05-10T15:03:32.614Z,6.30
2023-05-10T15:04:06.443Z,5.80
2023-05-10T15:04:40.130Z,6.30
2023-05-10T15:05:13.759Z,6.70
2023-05-10T15:05:47.825Z,4.50
2023-05-10T15:06:31.405Z,6.50
2023-05-10T15:07:04.540Z,4.10
2023-05-10T15:07:37.977Z,4.10
2023-05-10T15:08:11.210Z,3.80
2023-05-10T15:08:44.685Z,5.30
2023-05-10T15:09:17.962Z,5.40
2023-05-10T15:09:55.328Z,5.30
2023-05-10T15:10:28.448Z,3.50
2023-05-10T15:11:01.570Z,5.40
2023-05-10T15:11:34.766Z,4.90
2023-05-10T15:12:07.925Z,4.30
2023-05-10T15:12:41.286Z,5.80
2023-05-10T15:13:14.542Z,3.10
2023-05-10T15:13:47.655Z,4.80
2023-05-10T15:14:20.783Z,9.80
2023-05-10T15:14:53.944Z,5.70
2023-05-10T15:15:27.252Z,6.80
2023-05-10T15:16:00.312Z,7.60
2023-05-10T15:16:35.835Z,10.80
2023-05-10T15:17:09.520Z,13.30
2023-05-10T15:17:42.788Z,12.40
2023-05-10T15:18:16.057Z,11.40
2023-05-10T15:18:49.729Z,17.60
2023-05-10T15:19:22.921Z,17.40
2023-05-10T15:19:56.223Z,13.80
2023-05-10T15:20:29.419Z,14.10
2023-05-10T15:21:02.469Z,8.50
2023-05-10T15:21:40.058Z,24.60
2023-05-10T15:22:13.345Z,28.00
2023-05-10T15:22:46.561Z,41.90
2023-05-10T15:23:19.636Z,36.00
2023-05-10T15:23:52.736Z,38.30
2023-05-10T15:24:26.476Z,32.20
2023-05-10T15:25:00.496Z,43.90
2023-05-10T15:25:36.036Z,50.80
2023-05-10T15:26:09.225Z,64.60
2023-05-10T15:26:42.480Z,69.10
2023-05-10T15:27:15.721Z,54.40
2023-05-10T15:27:48.903Z,32.80
2023-05-10T15:28:22.283Z,29.20
2023-05-10T15:28:55.430Z,23.60
2023-05-10T15:29:28.550Z,30.90
2023-05-10T15:30:01.745Z,42.80
2023-05-10T15:30:34.853Z,37.70
2023-05-10T15:31:07.999Z,34.90
2023-05-10T15:31:41.470Z,20.00
2023-05-10T15:32:14.679Z,22.60
2023-05-10T15:32:47.840Z,15.60
2023-05-10T15:33:20.896Z,28.60
2023-05-10T15:33:58.459Z,27.10
2023-05-10T15:34:33.691Z,15.00
2023-05-10T15:35:10.804Z,11.10
2023-05-10T15:35:44.059Z,10.10
2023-05-10T15:36:18.959Z,5.90
2023-05-10T15:36:52.117Z,7.30
2023-05-10T15:37:25.743Z,3.80
2023-05-10T15:37:58.873Z,6.00
2023-05-10T15:38:32.719Z,4.90
2023-05-10T15:39:05.975Z,5.00
2023-05-10T15:39:39.578Z,7.80
2023-05-10T15:40:15.789Z,6.70
2023-05-10T15:40:48.852Z,4.60
2023-05-10T15:41:22.098Z,4.90
2023-05-10T15:41:55.191Z,7.10
2023-05-10T15:42:28.272Z,4.00
2023-05-10T15:43:01.716Z,7.80
2023-05-10T15:43:34.936Z,4.70
2023-05-10T15:44:08.040Z,4.40
2023-05-10T15:44:41.254Z,3.10
2023-05-10T15:45:14.480Z,4.90
2023-05-10T15:45:48.097Z,6.70
2023-05-10T15:46:21.259Z,8.30
2023-05-10T15:46:54.506Z,5.90
2023-05-10T15:47:29.035Z,9.50
2023-05-10T15:48:02.284Z,7.90
2023-05-10T15:48:35.521Z,6.30
2023-05-10T15:49:08.607Z,8.60
2023-05-10T15:49:41.916Z,9.10
2023-05-10T15:50:17.209Z,9.90
2023-05-10T15:50:50.451Z,10.80
2023-05-10T15:51:23.614Z,8.90
2023-05-10T15:51:57.095Z,7.20
2023-05-10T15:52:30.301Z,6.80
2023-05-10T15:53:03.532Z,9.40
2023-05-10T15:53:36.669Z,6.30
2023-05-10T15:54:10.085Z,5.60
2023-05-10T15:54:43.282Z,7.60
2023-05-10T15:55:17.554Z,4.30
2023-05-10T15:55:50.969Z,5.90
2023-05-10T15:56:24.057Z,4.90
2023-05-10T15:56:57.252Z,4.30
2023-05-10T15:57:30.593Z,5.30
2023-05-10T15:58:03.744Z,3.70
2023-05-10T15:58:37.446Z,5.50
2023-05-10T15:59:12.089Z,3.50
2023-05-10T15:59:46.129Z,4.10
2023-05-10T16:00:19.391Z,3.80
2023-05-10T16:00:52.634Z,6.70
2023-05-10T16:01:26.595Z,4.80
2023-05-10T16:01:59.973Z,4.40
2023-05-10T16:02:33.477Z,3.30
2023-05-10T16:03:07.155Z,2.70
2023-05-10T16:03:40.872Z,5.60
2023-05-10T16:04:14.317Z,5.30
2023-05-10T16:04:47.469Z,6.60
2023-05-10T16:05:20.628Z,5.90
2023-05-10T16:05:54.333Z,7.10
2023-05-10T16:06:27.600Z,4.10
2023-05-10T16:07:00.840Z,5.90
2023-05-10T16:07:34.459Z,6.40
2023-05-10T16:08:07.606Z,5.40
2023-05-10T16:08:40.892Z,4.30
2023-05-10T16:09:14.256Z,4.60
2023-05-10T16:09:49.646Z,5.90
2023-05-10T16:10:22.855Z,5.60
2023-05-10T16:10:56.343Z,7.50
2023-05-10T16:11:29.533Z,7.50
2023-05-10T16:12:02.918Z,5.30
2023-05-10T16:12:36.477Z,4.80
2023-05-10T16:13:09.737Z,4.50
2023-05-10T16:13:42.901Z,4.00
2023-05-10T16:14:17.465Z,5.70
2023-05-10T16:14:50.624Z,4.40
2023-05-10T16:15:23.772Z,5.10
2023-05-10T16:15:58.500Z,6.30
2023-05-10T16:16:31.815Z,4.50
2023-05-10T16:17:05.140Z,5.10
2023-05-10T16:17:38.678Z,4.70
2023-05-10T16:18:12.822Z,5.40
2023-05-10T16:18:46.099Z,4.10
2023-05-10T16:19:19.502Z,8.90
2023-05-10T16:19:52.736Z,3.70
2023-05-10T16:20:25.992Z,3.10
2023-05-10T16:20:59.477Z,6.00
2023-05-10T16:21:32.911Z,5.30
2023-05-10T16:22:06.198Z,3.70
2023-05-10T16:22:39.626Z,5.20
2023-05-10T16:23:13.186Z,4.30
2023-05-10T16:23:46.804Z,7.70
2023-05-10T16:24:20.039Z,5.50
2023-05-10T16:24:54.010Z,7.30
2023-05-10T16:25:27.156Z,8.80
2023-05-10T16:26:00.411Z,4.80
2023-05-10T16:26:37.033Z,7.00
2023-05-10T16:27:10.897Z,7.60
2023-05-10T16:27:44.635Z,3.80
2023-05-10T16:28:19.749Z,5.30
2023-05-10T16:28:52.991Z,4.30
2023-05-10T16:29:26.459Z,2.90
2023-05-10T16:30:00.077Z,4.30
2023-05-10T16:30:33.431Z,6.00
2023-05-10T16:31:07.041Z,5.10
2023-05-10T16:31:40.468Z,6.30
2023-05-10T16:32:14.046Z,4.40
2023-05-10T16:32:47.342Z,7.80
2023-05-10T16:33:21.027Z,5.20
2023-05-10T16:33:54.122Z,3.80
2023-05-10T16:34:27.334Z,6.80
2023-05-10T16:35:00.564Z,8.50
2023-05-10T16:35:33.778Z,5.60
2023-05-10T16:36:07.103Z,5.80
2023-05-10T16:36:40.285Z,3.40
2023-05-10T16:37:13.413Z,7.40
2023-05-10T16:37:46.701Z,5.90
2023-05-10T16:38:21.870Z,6.50
2023-05-10T16:38:55.819Z,4.40
2023-05-10T16:39:29.233Z,8.30
2023-05-10T16:40:02.484Z,6.30
2023-05-10T16:40:35.685Z,6.30
2023-05-10T16:41:09.142Z,7.40
2023-05-10T16:41:42.478Z,3.70
2023-05-10T16:42:15.788Z,3.20
2023-05-10T16:42:48.892Z,4.20
2023-05-10T16:43:24.003Z,8.40
2023-05-10T16:43:58.626Z,5.00
2023-05-10T16:44:31.878Z,5.30
2023-05-10T16:45:09.285Z,7.50
2023-05-10T16:45:42.585Z,4.90
2023-05-10T16:46:16.456Z,9.10
2023-05-10T16:46:49.627Z,4.10
2023-05-10T16:47:23.499Z,8.00
2023-05-10T16:47:57.018Z,4.00
2023-05-10T16:48:30.235Z,3.00
2023-05-10T16:49:03.557Z,6.00
2023-05-10T16:49:37.394Z,4.80
2023-05-10T16:50:10.918Z,6.50
2023-05-10T16:50:44.781Z,4.20
2023-05-10T16:51:18.065Z,3.90
2023-05-10T16:51:51.245Z,6.30
2023-05-10T16:52:24.459Z,6.20
2023-05-10T16:52:57.685Z,6.20
2023-05-10T16:53:31.727Z,4.40
2023-05-10T16:54:04.962Z,6.10
2023-05-10T16:54:38.187Z,7.70
2023-05-10T16:55:11.372Z,4.00
2023-05-10T16:55:44.503Z,4.10
2023-05-10T16:56:22.423Z,3.80
2023-05-10T16:56:55.769Z,5.90
2023-05-10T16:57:29.216Z,6.20
2023-05-10T16:58:03.466Z,5.80
2023-05-10T16:58:36.658Z,10.10
2023-05-10T16:59:09.940Z,5.50
2023-05-10T16:59:43.162Z,7.50
2023-05-10T17:00:17.025Z,6.10
2023-05-10T17:00:50.317Z,5.80
2023-05-10T17:01:26.283Z,5.10
2023-05-10T17:02:00.296Z,8.60
2023-05-10T17:02:33.659Z,11.10
2023-05-10T17:03:07.120Z,6.60
2023-05-10T17:03:40.728Z,5.60
2023-05-10T17:04:14.622Z,5.30
2023-05-10T17:04:47.871Z,5.40
2023-05-10T17:05:22.045Z,6.80
2023-05-10T17:05:55.198Z,6.50
2023-05-10T17:06:28.309Z,6.00
2023-05-10T17:07:01.354Z,7.10
2023-05-10T17:07:34.963Z,6.60
2023-05-10T17:08:09.347Z,5.30
2023-05-10T17:08:42.610Z,6.60
2023-05-10T17:09:15.952Z,6.10
2023-05-10T17:09:49.361Z,6.90
2023-05-10T17:10:22.702Z,5.10
2023-05-10T17:10:56.535Z,8.60
2023-05-10T17:11:30.339Z,11.90
2023-05-10T17:12:03.885Z,6.10
2023-05-10T17:12:37.062Z,5.90
2023-05-10T17:13:11.158Z,6.60
2023-05-10T17:13:44.558Z,4.10
2023-05-10T17:14:18.236Z,9.60
2023-05-10T17:14:51.915Z,5.70
2023-05-10T17:15:25.191Z,7.10
2023-05-10T17:15:58.624Z,10.10
2023-05-10T17:16:32.073Z,11.50
2023-05-10T17:17:05.221Z,10.00
2023-05-10T17:17:38.634Z,10.10
2023-05-10T17:18:12.053Z,11.30
2023-05-10T17:18:46.146Z,10.90
2023-05-10T17:19:19.502Z,8.30
2023-05-10T17:19:52.774Z,9.40
2023-05-10T17:20:26.746Z,6.40
2023-05-10T17:20:59.903Z,8.70
2023-05-10T17:21:33.217Z,7.40
2023-05-10T17:22:06.518Z,6.30
2023-05-10T17:22:39.831Z,7.40
2023-05-10T17:23:12.936Z,7.00
2023-05-10T17:23:46.211Z,7.10
2023-05-10T17:24:19.407Z,7.90
2023-05-10T17:24:52.582Z,9.50
2023-05-10T17:25:25.839Z,10.80
2023-05-10T17:26:01.451Z,6.80
2023-05-10T17:26:34.878Z,9.60
2023-05-10T17:27:08.526Z,10.00
2023-05-10T17:27:41.767Z,8.30
2023-05-10T17:28:15.103Z,8.80
2023-05-10T17:28:48.443Z,10.80
2023-05-10T17:29:21.622Z,9.70
2023-05-10T17:29:58.996Z,8.70
2023-05-10T17:30:32.940Z,9.60
2023-05-10T17:31:06.257Z,10.60
2023-05-10T17:31:40.255Z,11.90
2023-05-10T17:32:13.569Z,12.70
2023-05-10T17:32:46.847Z,14.10
2023-05-10T17:33:20.058Z,19.00
2023-05-10T17:33:53.590Z,11.30
2023-05-10T17:34:26.706Z,16.50
2023-05-10T17:35:00.076Z,15.80
2023-05-10T17:35:33.490Z,9.20
2023-05-10T17:36:07.130Z,12.80
2023-05-10T17:36:40.705Z,8.60
2023-05-10T17:37:14.017Z,7.70
2023-05-10T17:37:47.222Z,7.50
2023-05-10T17:38:20.538Z,10.20
2023-05-10T17:38:53.787Z,6.60
2023-05-10T17:39:27.040Z,9.50
2023-05-10T17:40:01.164Z,10.70
2023-05-10T17:40:34.422Z,10.70
2023-05-10T17:41:07.902Z,12.90
2023-05-10T17:41:41.621Z,13.80
2023-05-10T17:42:17.807Z,11.90
2023-05-10T17:42:51.131Z,10.30
2023-05-10T17:43:26.241Z,12.50
2023-05-10T17:43:59.466Z,11.00
2023-05-10T17:44:32.850Z,10.70
2023-05-10T17:45:06.743Z,13.10
2023-05-10T17:45:39.821Z,10.60
2023-05-10T17:46:13.196Z,11.00
2023-05-10T17:46:46.422Z,13.50
2023-05-10T17:47:19.718Z,17.40
2023-05-10T17:47:53.082Z,13.20
2023-05-10T17:48:26.461Z,11.00
2023-05-10T17:48:59.869Z,9.90
2023-05-10T17:49:33.243Z,9.40
2023-05-10T17:50:07.351Z,11.10
2023-05-10T17:50:43.616Z,12.80
2023-05-10T17:51:16.876Z,10.60
2023-05-10T17:51:50.659Z,10.50
2023-05-10T17:52:23.938Z,16.40
2023-05-10T17:52:57.648Z,14.00
2023-05-10T17:53:31.631Z,13.60
2023-05-10T17:54:05.124Z,13.70
2023-05-10T17:54:38.702Z,11.30
2023-05-10T17:55:12.914Z,16.80
2023-05-10T17:55:46.291Z,12.40
2023-05-10T17:56:19.779Z,16.10
2023-05-10T17:56:53.768Z,11.80
2023-05-10T17:57:27.249Z,15.70
2023-05-10T17:58:01.473Z,12.40
2023-05-10T17:58:38.561Z,18.10
2023-05-10T17:59:12.012Z,14.00
2023-05-10T17:59:45.487Z,12.20
2023-05-10T18:00:19.409Z,9.80
2023-05-10T18:00:53.409Z,13.90
2023-05-10T18:01:26.733Z,12.90
2023-05-10T18:02:01.690Z,10.50
2023-05-10T18:02:38.185Z,8.80
2023-05-10T18:03:12.173Z,10.60
2023-05-10T18:03:46.601Z,12.20
2023-05-10T18:04:20.145Z,9.50
2023-05-10T18:04:53.676Z,9.20
2023-05-10T18:05:27.675Z,11.80
2023-05-10T18:06:01.270Z,7.60
2023-05-10T18:06:37.959Z,8.80
2023-05-10T18:07:11.177Z,9.80
2023-05-10T18:07:44.828Z,14.50
2023-05-10T18:08:23.056Z,7.90
2023-05-10T18:08:56.497Z,8.00
2023-05-10T18:09:30.296Z,14.80
2023-05-10T18:10:03.700Z,8.00
2023-05-10T18:10:39.954Z,11.00
2023-05-10T18:11:14.857Z,8.60
2023-05-10T18:11:50.856Z,10.00
2023-05-10T18:12:25.212Z,7.50
2023-05-10T18:13:02.891Z,9.20
2023-05-10T18:13:36.384Z,8.60
2023-05-10T18:14:09.756Z,9.60
2023-05-10T18:14:43.160Z,6.00
2023-05-10T18:15:17.617Z,6.30
2023-05-10T18:15:51.548Z,9.40
2023-05-10T18:16:24.662Z,9.10
2023-05-10T18:16:58.228Z,7.00
2023-05-10T18:17:31.497Z,8.80
2023-05-10T18:18:05.733Z,6.20
2023-05-10T18:18:40.136Z,10.30
2023-05-10T18:19:13.796Z,11.20
2023-05-10T18:19:47.172Z,9.20
2023-05-10T18:20:20.449Z,8.80
2023-05-10T18:20:57.022Z,7.90
2023-05-10T18:21:30.355Z,7.80
2023-05-10T18:22:03.915Z,9.90
2023-05-10T18:22:37.275Z,6.70
2023-05-10T18:23:10.880Z,9.10
2023-05-10T18:23:44.240Z,6.50
2023-05-10T18:24:30.029Z,7.60
2023-05-10T18:25:10.768Z,5.90
2023-05-10T18:25:44.656Z,6.50
2023-05-10T18:26:18.580Z,12.50
2023-05-10T18:26:51.947Z,6.50
2023-05-10T18:27:25.656Z,11.00
2023-05-10T18:27:59.422Z,11.90
2023-05-10T18:28:32.806Z,10.30
2023-05-10T18:29:06.179Z,12.30
2023-05-10T18:29:39.995Z,8.70
2023-05-10T18:30:14.281Z,8.00
2023-05-10T18:30:47.503Z,10.20
2023-05-10T18:31:21.422Z,8.80
2023-05-10T18:31:54.738Z,6.30
2023-05-10T18:32:28.347Z,8.00
2023-05-10T18:33:01.953Z,7.50
2023-05-10T18:33:35.495Z,7.70
2023-05-10T18:34:09.295Z,10.30
2023-05-10T18:34:42.609Z,8.00
2023-05-10T18:35:16.178Z,11.30
2023-05-10T18:35:49.672Z,9.00
2023-05-10T18:36:24.062Z,9.20
2023-05-10T18:36:58.071Z,10.70
2023-05-10T18:37:31.538Z,7.90
2023-05-10T18:38:04.753Z,8.40
2023-05-10T18:38:38.312Z,7.80
2023-05-10T18:39:13.326Z,9.70
2023-05-10T18:39:46.803Z,8.80
2023-05-10T18:40:20.410Z,11.40
2023-05-10T18:40:53.779Z,7.60
2023-05-10T18:41:27.436Z,6.90
2023-05-10T18:42:01.472Z,7.80
2023-05-10T18:42:34.749Z,13.60
2023-05-10T18:43:08.132Z,11.90
2023-05-10T18:43:43.048Z,12.40
2023-05-10T18:44:16.649Z,9.00
2023-05-10T18:44:49.908Z,8.20
2023-05-10T18:45:23.338Z,8.40
2023-05-10T18:45:56.866Z,7.40
2023-05-10T18:46:32.019Z,10.90
2023-05-10T18:47:05.616Z,9.60
2023-05-10T18:47:38.896Z,12.10
2023-05-10T18:48:12.601Z,12.40
2023-05-10T18:48:46.605Z,10.10
2023-05-10T18:49:20.584Z,9.50
2023-05-10T18:49:54.167Z,8.50
2023-05-10T18:50:27.677Z,9.80
2023-05-10T18:51:01.347Z,9.80
2023-05-10T18:51:34.724Z,8.60
2023-05-10T18:52:08.304Z,8.00
2023-05-10T18:52:41.782Z,11.80
2023-05-10T18:53:15.267Z,9.30
2023-05-10T18:53:49.787Z,14.30
2023-05-10T18:54:23.204Z,12.00
2023-05-10T18:54:56.852Z,30.30
2023-05-10T18:55:30.602Z,12.20
2023-05-10T18:56:04.350Z,11.00
2023-05-10T18:56:40.078Z,10.20
2023-05-10T18:57:14.081Z,13.10
2023-05-10T18:57:47.354Z,12.90
2023-05-10T18:58:20.950Z,14.60
2023-05-10T18:58:54.447Z,10.30
2023-05-10T18:59:30.886Z,13.80
2023-05-10T19:00:04.870Z,13.20
2023-05-10T19:00:38.470Z,14.20
2023-05-10T19:01:12.083Z,15.80
2023-05-10T19:01:45.821Z,21.70
2023-05-10T19:02:19.214Z,24.10
2023-05-10T19:02:53.785Z,26.30
2023-05-10T19:03:27.226Z,28.20
2023-05-10T19:04:00.634Z,27.50
2023-05-10T19:04:34.187Z,33.80
2023-05-10T19:05:09.002Z,36.60
2023-05-10T19:05:42.389Z,32.90
2023-05-10T19:06:15.776Z,31.60
2023-05-10T19:06:49.183Z,31.10
2023-05-10T19:07:22.409Z,24.40
2023-05-10T19:07:56.773Z,28.20
2023-05-10T19:08:30.318Z,25.60
2023-05-10T19:09:04.037Z,29.80
2023-05-10T19:09:37.462Z,29.00
2023-05-10T19:10:13.259Z,26.80
2023-05-10T19:10:47.044Z,27.00
2023-05-10T19:11:22.006Z,28.20
2023-05-10T19:11:55.847Z,29.40
2023-05-10T19:12:29.253Z,23.20
2023-05-10T19:13:03.251Z,34.40
2023-05-10T19:13:37.110Z,26.10
2023-05-10T19:14:10.614Z,33.10
2023-05-10T19:14:44.065Z,29.90
2023-05-10T19:15:19.456Z,33.60
2023-05-10T19:16:15.222Z,32.60
2023-05-10T19:16:48.987Z,29.10
2023-05-10T19:17:25.307Z,28.80
2023-05-10T19:17:59.787Z,27.30
2023-05-10T19:18:33.954Z,24.20
2023-05-10T19:19:09.140Z,26.00
2023-05-10T19:19:42.897Z,22.70
2023-05-10T19:20:17.957Z,21.00
2023-05-10T19:20:56.530Z,17.80
2023-05-10T19:21:32.295Z,19.00
2023-05-10T19:22:06.029Z,17.60
2023-05-10T19:23:16.481Z,16.80
2023-05-10T19:23:50.306Z,13.40
2023-05-10T19:24:26.011Z,13.30
2023-05-10T19:25:01.085Z,12.90
2023-05-10T19:25:35.723Z,11.40
2023-05-10T19:26:11.160Z,11.90
2023-05-10T19:26:46.237Z,10.10
2023-05-10T19:27:20.541Z,8.80
2023-05-10T19:27:54.326Z,10.50
2023-05-10T19:28:27.810Z,15.10
2023-05-10T19:29:04.943Z,11.40
2023-05-10T19:29:38.477Z,17.00
2023-05-10T19:30:12.428Z,11.90
2023-05-10T19:30:45.790Z,16.80
2023-05-10T19:31:20.327Z,11.40
2023-05-10T19:31:53.791Z,16.10
2023-05-10T19:32:27.345Z,9.70
2023-05-10T19:33:05.486Z,13.00
2023-05-10T19:33:40.617Z,11.60
2023-05-10T19:34:14.467Z,17.40
2023-05-10T19:34:48.147Z,11.10
2023-05-10T19:35:21.847Z,13.70
2023-05-10T19:35:56.351Z,14.00
2023-05-10T19:36:29.945Z,10.80
2023-05-10T19:37:03.447Z,12.60
2023-05-10T19:37:37.099Z,12.30
2023-05-10T19:38:10.773Z,12.00
2023-05-10T19:38:44.443Z,9.60
2023-05-10T19:39:17.811Z,10.40
2023-05-10T19:39:52.089Z,12.40
2023-05-10T19:40:25.688Z,11.10
2023-05-10T19:40:59.636Z,11.10
2023-05-10T19:41:33.139Z,12.00
2023-05-10T19:42:07.132Z,12.80
2023-05-10T19:42:40.641Z,12.60
2023-05-10T19:43:13.891Z,16.10
2023-05-10T19:43:47.271Z,11.90
2023-05-10T19:44:20.884Z,26.40
2023-05-10T19:44:54.865Z,30.20
2023-05-10T19:45:28.558Z,31.40
2023-05-10T19:46:03.005Z,30.90
2023-05-10T19:46:36.382Z,30.50
2023-05-10T19:47:09.721Z,33.80
2023-05-10T19:47:43.478Z,34.60
2023-05-10T19:48:17.007Z,38.20
2023-05-10T19:48:50.386Z,32.10
2023-05-10T19:49:23.854Z,28.70
2023-05-10T19:49:57.193Z,30.20
2023-05-10T19:50:30.658Z,27.10
2023-05-10T19:51:07.854Z,25.10
2023-05-10T19:51:42.260Z,23.60
2023-05-10T19:52:15.611Z,21.90
2023-05-10T19:52:50.725Z,22.20
2023-05-10T19:53:24.110Z,20.80
2023-05-10T19:53:57.560Z,25.10
2023-05-10T19:54:30.975Z,24.60
2023-05-10T19:55:05.406Z,23.50
2023-05-10T19:55:38.903Z,18.40
2023-05-10T19:56:13.470Z,20.50
2023-05-10T19:56:46.867Z,19.50
2023-05-10T19:57:20.549Z,22.70
2023-05-10T19:57:53.827Z,15.30
2023-05-10T19:58:28.965Z,15.50
2023-05-10T19:59:03.921Z,17.00
2023-05-10T19:59:38.098Z,16.40
2023-05-10T20:00:13.060Z,17.40
2023-05-10T20:00:46.483Z,18.00
2023-05-10T20:01:20.138Z,19.20
2023-05-10T20:01:53.551Z,19.80
2023-05-10T20:02:26.973Z,16.80
2023-05-10T20:03:00.549Z,17.20
2023-05-10T20:03:35.622Z,13.20
2023-05-10T20:04:10.628Z,18.70
2023-05-10T20:04:43.951Z,12.70
2023-05-10T20:05:17.933Z,13.30
2023-05-10T20:05:51.709Z,12.40
2023-05-10T20:06:25.532Z,13.20
2023-05-10T20:06:58.816Z,12.70
2023-05-10T20:07:32.413Z,13.20
2023-05-10T20:08:05.780Z,12.90
2023-05-10T20:08:39.167Z,12.50
2023-05-10T20:09:12.437Z,15.80
2023-05-10T20:09:45.756Z,11.90
2023-05-10T20:10:19.414Z,13.90
2023-05-10T20:10:52.707Z,19.90
2023-05-10T20:11:26.193Z,17.90
2023-05-10T20:11:59.887Z,14.40
2023-05-10T20:12:33.252Z,15.00
2023-05-10T20:13:07.197Z,15.00
2023-05-10T20:13:40.816Z,14.40
2023-05-10T20:14:14.474Z,14.30
2023-05-10T20:14:48.051Z,11.10
2023-05-10T20:15:23.494Z,14.50
2023-05-10T20:15:57.854Z,11.10
2023-05-10T20:16:31.910Z,11.80
2023-05-10T20:17:05.904Z,12.60
2023-05-10T20:17:39.192Z,12.80
2023-05-10T20:18:12.919Z,12.80
2023-05-10T20:18:47.054Z,13.80
2023-05-10T20:19:20.353Z,11.00
2023-05-10T20:19:53.687Z,10.30
2023-05-10T20:20:27.133Z,10.30
2023-05-10T20:21:01.696Z,10.80
2023-05-10T20:21:35.055Z,9.50
2023-05-10T20:22:09.696Z,9.90
2023-05-10T20:22:43.898Z,11.10
2023-05-10T20:23:17.474Z,13.40
2023-05-10T20:23:50.759Z,12.30
2023-05-10T20:24:24.335Z,10.90
2023-05-10T20:24:58.896Z,9.20
2023-05-10T20:25:32.579Z,11.80
2023-05-10T20:26:06.171Z,11.00
2023-05-10T20:26:39.501Z,10.20
2023-05-10T20:27:12.994Z,12.60
2023-05-10T20:27:46.698Z,9.80
2023-05-10T20:28:26.457Z,8.80
2023-05-10T20:29:00.190Z,10.60
2023-05-10T20:29:33.919Z,10.00
2023-05-10T20:30:08.030Z,11.70
2023-05-10T20:30:41.303Z,10.30
2023-05-10T20:31:14.619Z,11.60
2023-05-10T20:31:47.781Z,16.90
2023-05-10T20:32:20.945Z,9.30
2023-05-10T20:32:54.501Z,9.60
2023-05-10T20:33:27.810Z,12.30
2023-05-10T20:34:01.176Z,10.90
2023-05-10T20:34:35.437Z,7.70
2023-05-10T20:35:09.186Z,12.00
2023-05-10T20:35:42.717Z,14.00
2023-05-10T20:36:15.847Z,7.00
2023-05-10T20:36:49.144Z,8.90
2023-05-10T20:37:23.477Z,10.00
2023-05-10T20:37:56.709Z,8.90
2023-05-10T20:38:29.900Z,7.50
2023-05-10T20:39:03.438Z,7.70
2023-05-10T20:39:36.730Z,7.40
2023-05-10T20:40:10.428Z,7.90
2023-05-10T20:40:43.810Z,10.60
2023-05-10T20:41:17.012Z,9.00
2023-05-10T20:41:50.099Z,9.10
2023-05-10T20:42:24.190Z,10.30
2023-05-10T20:42:57.614Z,6.70
2023-05-10T20:43:31.030Z,5.90
2023-05-10T20:44:05.783Z,7.00
2023-05-10T20:44:39.039Z,9.50
2023-05-10T20:45:12.353Z,7.20
2023-05-10T20:45:45.487Z,5.90
2023-05-10T20:46:18.831Z,9.40
2023-05-10T20:46:52.400Z,8.10
2023-05-10T20:47:25.707Z,8.70
2023-05-10T20:47:59.433Z,7.80
2023-05-10T20:48:33.419Z,10.20
2023-05-10T20:49:08.842Z,6.90
2023-05-10T20:49:42.222Z,9.70
2023-05-10T20:50:15.540Z,8.00
2023-05-10T20:50:49.298Z,10.30
2023-05-10T20:51:23.302Z,9.00
2023-05-10T20:51:56.900Z,11.60
2023-05-10T20:52:30.688Z,12.30
2023-05-10T20:53:03.967Z,12.80
2023-05-10T20:53:37.408Z,6.70
2023-05-10T20:54:11.046Z,13.30
2023-05-10T20:54:44.426Z,7.60
2023-05-10T20:55:17.932Z,8.00
2023-05-10T20:55:51.423Z,7.00
2023-05-10T20:56:24.780Z,9.90
2023-05-10T20:56:58.249Z,11.00
2023-05-10T20:57:31.640Z,7.30
2023-05-10T20:58:05.247Z,8.80
2023-05-10T20:58:39.424Z,5.60
2023-05-10T20:59:12.820Z,8.00
2023-05-10T20:59:46.203Z,7.10
2023-05-10T21:00:20.426Z,6.20
2023-05-10T21:00:53.874Z,8.30
2023-05-10T21:01:27.279Z,8.70
2023-05-10T21:02:00.712Z,7.50
2023-05-10T21:02:34.298Z,8.10
2023-05-10T21:03:07.895Z,7.90
2023-05-10T21:03:41.420Z,10.70
2023-05-10T21:04:15.198Z,6.00
2023-05-10T21:04:48.495Z,6.70
2023-05-10T21:05:22.030Z,7.10
2023-05-10T21:05:55.273Z,5.50
2023-05-10T21:06:28.533Z,7.70
2023-05-10T21:07:01.967Z,5.80
2023-05-10T21:07:35.434Z,4.90
2023-05-10T21:08:08.912Z,5.60
2023-05-10T21:08:42.594Z,6.80
2023-05-10T21:09:17.287Z,10.30
2023-05-10T21:09:50.903Z,11.30
2023-05-10T21:10:25.376Z,12.30
2023-05-10T21:10:59.510Z,9.30
2023-05-10T21:11:36.173Z,5.90
2023-05-10T21:12:10.340Z,7.60
2023-05-10T21:12:43.742Z,5.30
2023-05-10T21:13:17.192Z,7.80
2023-05-10T21:13:51.501Z,5.50
2023-05-10T21:14:24.797Z,6.30
2023-05-10T21:14:58.187Z,6.90
2023-05-10T21:15:31.584Z,8.30
2023-05-10T21:16:05.547Z,7.20
2023-05-10T21:16:39.021Z,8.40
2023-05-10T21:17:12.631Z,6.00
2023-05-10T21:17:46.257Z,7.00
2023-05-10T21:18:19.665Z,9.20
2023-05-10T21:18:53.021Z,6.90
2023-05-10T21:19:26.470Z,6.90
2023-05-10T21:19:59.879Z,5.70
2023-05-10T21:20:33.341Z,5.30
2023-05-10T21:21:06.516Z,7.70
2023-05-10T21:21:39.907Z,6.00
2023-05-10T21:22:14.113Z,7.50
2023-05-10T21:22:47.585Z,5.70
2023-05-10T21:23:21.009Z,7.30
2023-05-10T21:23:54.270Z,6.90
2023-05-10T21:24:27.565Z,7.30
2023-05-10T21:25:01.128Z,4.80
2023-05-10T21:25:34.838Z,6.00
2023-05-10T21:26:08.408Z,5.20
2023-05-10T21:26:42.390Z,7.30
2023-05-10T21:27:15.988Z,6.60
2023-05-10T21:27:49.165Z,7.20
2023-05-10T21:28:22.542Z,6.20
2023-05-10T21:28:56.951Z,8.00
2023-05-10T21:29:30.338Z,6.70
2023-05-10T21:30:03.920Z,7.00
2023-05-10T21:30:37.097Z,7.80
2023-05-10T21:31:12.801Z,5.60
2023-05-10T21:31:46.450Z,11.40
2023-05-10T21:32:20.611Z,5.90
2023-05-10T21:32:55.490Z,8.30
2023-05-10T21:33:29.378Z,7.80
2023-05-10T21:34:02.832Z,6.60
2023-05-10T21:34:36.542Z,8.20
2023-05-10T21:35:10.336Z,4.40
2023-05-10T21:35:44.591Z,6.80
2023-05-10T21:36:18.035Z,7.10
2023-05-10T21:36:51.487Z,7.20
2023-05-10T21:37:24.985Z,5.40
2023-05-10T21:37:58.657Z,6.30
2023-05-10T21:38:32.854Z,5.10
2023-05-10T21:39:06.242Z,6.40
2023-05-10T21:39:39.607Z,6.30
2023-05-10T21:40:13.416Z,6.90
2023-05-10T21:40:47.110Z,8.90
2023-05-10T21:41:20.636Z,4.70
2023-05-10T21:41:53.956Z,5.40
2023-05-10T21:42:27.469Z,8.70
2023-05-10T21:43:01.079Z,10.00
2023-05-10T21:43:34.647Z,8.70
2023-05-10T21:44:07.929Z,8.90
2023-05-10T21:44:41.208Z,7.90
2023-05-10T21:45:14.354Z,9.50
2023-05-10T21:45:48.029Z,6.90
2023-05-10T21:46:22.206Z,10.20
2023-05-10T21:46:55.650Z,7.80
2023-05-10T21:47:29.027Z,6.30
2023-05-10T21:48:02.661Z,8.10
2023-05-10T21:48:36.824Z,6.90
2023-05-10T21:49:10.221Z,7.10
2023-05-10T21:49:43.400Z,7.90
2023-05-10T21:50:16.829Z,6.10
2023-05-10T21:50:50.991Z,8.20
2023-05-10T21:51:24.463Z,6.20
2023-05-10T21:51:58.075Z,8.70
2023-05-10T21:52:31.391Z,8.10
2023-05-10T21:53:05.139Z,11.00
2023-05-10T21:53:39.319Z,8.00
2023-05-10T21:54:12.815Z,5.30
2023-05-10T21:54:46.102Z,7.40
2023-05-10T21:55:19.783Z,6.90
2023-05-10T21:55:55.475Z,7.00
2023-05-10T21:56:28.688Z,7.80
2023-05-10T21:57:01.965Z,6.40
2023-05-10T21:57:35.264Z,7.30
2023-05-10T21:58:08.745Z,7.80
2023-05-10T21:58:42.117Z,8.00
2023-05-10T21:59:15.420Z,5.40
2023-05-10T21:59:48.783Z,9.50
2023-05-10T22:00:22.271Z,9.20
2023-05-10T22:00:56.409Z,10.20
2023-05-10T22:01:30.128Z,6.70
2023-05-10T22:02:03.884Z,8.70
2023-05-10T22:02:37.633Z,7.40
2023-05-10T22:03:11.370Z,9.40
2023-05-10T22:03:45.077Z,6.30
2023-05-10T22:04:18.536Z,7.10
2023-05-10T22:04:51.781Z,10.20
2023-05-10T22:05:25.205Z,9.00
2023-05-10T22:05:58.554Z,5.70
2023-05-10T22:06:32.345Z,7.90
2023-05-10T22:07:05.834Z,6.80
2023-05-10T22:07:39.234Z,7.50
2023-05-10T22:08:12.619Z,6.90
2023-05-10T22:08:46.001Z,6.20
2023-05-10T22:09:19.162Z,8.00
2023-05-10T22:09:52.438Z,8.40